Time;durP1;ratioP1;P1;durP2;ratioP2;P2;SDS_P1;SDS_P2;PMS_P1;PMS_P2;Temp;Humidity;BMP_temperature;BMP_pressure;BME280_temperature;BME280_humidity;BME280_pressure;Samples;Min_cycle;Max_cycle;Signal;HPM_P1;HPM_P2
2023/08/15 00:00:04;;;;;;;10.82;8.45;;;23.90;69.50;;;;;;4997153;28;20101;-70
2023/08/15 00:02:30;;;;;;;13.50;8.93;;;23.90;69.70;;;;;;4997042;28;20142;-71
2023/08/15 00:04:57;;;;;;;11.55;8.70;;;23.80;69.70;;;;;;4997009;28;20518;-71
2023/08/15 00:07:23;;;;;;;15.55;10.10;;;23.80;69.80;;;;;;4996439;28;20448;-71
2023/08/15 00:09:49;;;;;;;14.05;9.13;;;23.80;69.90;;;;;;4996645;28;20045;-71
2023/08/15 00:12:17;;;;;;;13.13;9.57;;;23.80;69.80;;;;;;4995273;28;20049;-71
2023/08/15 00:14:43;;;;;;;15.07;9.77;;;23.70;70.10;;;;;;4996371;28;20519;-71
2023/08/15 00:17:13;;;;;;;12.18;10.10;;;23.70;70.30;;;;;;4996344;28;20046;-71
2023/08/15 00:19:41;;;;;;;15.38;10.55;;;23.70;70.40;;;;;;4996258;28;20022;-71
2023/08/15 00:22:07;;;;;;;14.02;10.80;;;23.70;70.40;;;;;;4995908;28;20157;-71
2023/08/15 00:24:36;;;;;;;13.55;12.00;;;23.60;70.60;;;;;;4996218;28;20026;-71
2023/08/15 00:27:04;;;;;;;15.95;12.23;;;23.60;70.90;;;;;;4996686;28;20030;-71
2023/08/15 00:29:30;;;;;;;16.83;12.75;;;23.50;71.20;;;;;;4996059;28;20027;-71
2023/08/15 00:31:56;;;;;;;17.13;14.23;;;23.50;71.60;;;;;;4995735;28;20029;-71
2023/08/15 00:34:22;;;;;;;18.80;14.40;;;23.50;72.10;;;;;;4996557;28;20022;-71
2023/08/15 00:36:48;;;;;;;20.67;15.23;;;23.40;72.10;;;;;;4996078;28;20460;-71
2023/08/15 00:39:14;;;;;;;19.92;14.82;;;23.40;72.20;;;;;;4996526;28;20335;-71
2023/08/15 00:41:39;;;;;;;17.77;13.63;;;23.40;72.20;;;;;;4995933;28;20041;-71
2023/08/15 00:44:07;;;;;;;15.73;12.55;;;23.30;72.20;;;;;;4995610;28;20102;-71
2023/08/15 00:46:33;;;;;;;15.00;12.57;;;23.30;72.10;;;;;;4995956;28;20076;-71
2023/08/15 00:48:59;;;;;;;13.93;12.43;;;23.30;72.30;;;;;;4996185;28;20046;-71
2023/08/15 00:51:27;;;;;;;15.65;12.75;;;23.30;72.30;;;;;;4995919;28;20036;-71
2023/08/15 00:53:53;;;;;;;14.75;11.63;;;23.20;72.40;;;;;;4995775;28;20073;-71
2023/08/15 00:56:20;;;;;;;13.43;11.55;;;23.20;72.30;;;;;;4995871;28;20444;-71
2023/08/15 00:58:46;;;;;;;14.80;12.20;;;23.20;72.20;;;;;;4995783;28;20436;-71
2023/08/15 01:01:16;;;;;;;14.38;12.10;;;23.20;72.20;;;;;;4996241;28;20109;-71
2023/08/15 01:03:43;;;;;;;13.18;11.18;;;23.10;72.20;;;;;;4996550;28;20092;-71
2023/08/15 01:06:09;;;;;;;11.80;10.57;;;23.10;72.20;;;;;;4995714;28;20030;-71
2023/08/15 01:08:35;;;;;;;13.68;11.02;;;23.20;72.20;;;;;;4996194;28;20069;-71
2023/08/15 01:11:02;;;;;;;12.63;10.88;;;23.10;72.00;;;;;;4995575;28;20034;-71
2023/08/15 01:13:32;;;;;;;12.65;9.75;;;23.10;72.00;;;;;;4995820;28;20134;-71
2023/08/15 01:16:01;;;;;;;12.27;10.45;;;23.10;71.80;;;;;;4995656;28;20027;-71
2023/08/15 01:18:45;;;;;;;12.15;10.57;;;23.00;71.80;;;;;;4995311;28;20018;-71
2023/08/15 01:21:22;;;;;;;13.10;10.27;;;23.00;72.00;;;;;;4994696;28;20051;-71
2023/08/15 01:23:50;;;;;;;11.82;10.07;;;23.00;72.00;;;;;;4995879;28;20097;-71
2023/08/15 01:26:16;;;;;;;11.30;9.93;;;23.00;72.00;;;;;;4995540;28;20455;-71
2023/08/15 01:28:41;;;;;;;13.07;10.07;;;22.90;72.10;;;;;;4995515;28;20030;-71
2023/08/15 01:31:14;;;;;;;13.30;10.77;;;22.90;72.10;;;;;;4996005;28;20049;-71
2023/08/15 01:33:55;;;;;;;13.98;11.05;;;22.90;72.40;;;;;;4995999;28;20050;-71
2023/08/15 01:36:30;;;;;;;14.20;10.57;;;22.80;72.90;;;;;;4995209;28;20170;-71
2023/08/15 01:39:03;;;;;;;11.55;10.35;;;22.80;72.70;;;;;;4995774;28;20124;-71
2023/08/15 01:41:34;;;;;;;12.02;9.93;;;22.80;73.10;;;;;;4995448;28;20102;-71
2023/08/15 01:44:01;;;;;;;11.52;9.82;;;22.80;72.80;;;;;;4995926;28;20033;-71
2023/08/15 01:46:27;;;;;;;11.73;10.23;;;22.80;73.00;;;;;;4999353;28;20045;-71
2023/08/15 01:48:53;;;;;;;12.40;9.98;;;22.80;73.10;;;;;;4998078;28;20022;-71
2023/08/15 01:51:19;;;;;;;10.65;9.55;;;22.80;73.10;;;;;;4999454;28;20109;-71
2023/08/15 01:53:45;;;;;;;13.18;10.40;;;22.80;73.10;;;;;;4998934;28;20018;-71
2023/08/15 01:56:11;;;;;;;12.90;10.23;;;22.80;73.10;;;;;;4999403;28;20033;-71
2023/08/15 01:58:37;;;;;;;11.27;9.60;;;22.80;73.20;;;;;;4999130;28;20023;-70
2023/08/15 02:01:03;;;;;;;11.73;9.73;;;22.80;73.00;;;;;;4999056;28;20449;-71
2023/08/15 02:03:30;;;;;;;12.32;10.63;;;22.80;72.90;;;;;;4998824;28;20033;-71
2023/08/15 02:05:56;;;;;;;12.00;9.88;;;22.80;72.80;;;;;;4998930;28;20026;-71
2023/08/15 02:08:22;;;;;;;12.38;10.65;;;22.80;72.90;;;;;;4998710;28;20459;-71
2023/08/15 02:10:50;;;;;;;14.98;9.98;;;22.80;72.90;;;;;;4998537;28;20367;-71
2023/08/15 02:13:16;;;;;;;12.88;10.88;;;22.80;72.90;;;;;;4997588;28;20061;-71
2023/08/15 02:15:42;;;;;;;13.15;10.15;;;22.80;73.00;;;;;;4998581;28;20027;-71
2023/08/15 02:18:10;;;;;;;12.43;9.68;;;22.80;72.80;;;;;;4998741;28;20385;-71
2023/08/15 02:20:37;;;;;;;14.63;10.35;;;22.80;73.10;;;;;;4998635;28;20077;-71
2023/08/15 02:23:03;;;;;;;11.23;9.25;;;22.70;73.20;;;;;;4998239;28;20113;-71
2023/08/15 02:25:29;;;;;;;13.18;10.18;;;22.70;73.30;;;;;;4998657;28;20038;-71
2023/08/15 02:27:55;;;;;;;12.48;10.85;;;22.70;73.10;;;;;;4998288;28;20436;-71
2023/08/15 02:30:21;;;;;;;12.57;9.40;;;22.70;73.00;;;;;;4998474;28;20085;-71
2023/08/15 02:32:47;;;;;;;11.10;9.40;;;22.70;73.10;;;;;;4998433;28;20032;-71
2023/08/15 02:35:13;;;;;;;11.52;9.20;;;22.70;72.90;;;;;;4998440;28;20037;-71
2023/08/15 02:37:41;;;;;;;9.63;8.15;;;22.70;72.80;;;;;;4998141;28;20019;-71
2023/08/15 02:40:10;;;;;;;9.98;8.68;;;22.70;72.70;;;;;;4998077;28;20093;-71
2023/08/15 02:42:36;;;;;;;11.18;7.97;;;22.70;72.50;;;;;;4998032;28;20117;-71
2023/08/15 02:45:02;;;;;;;10.30;8.60;;;22.80;72.50;;;;;;4998032;28;20105;-71
2023/08/15 02:47:32;;;;;;;10.32;8.15;;;22.70;72.50;;;;;;4997997;28;20030;-71
2023/08/15 02:50:04;;;;;;;8.70;7.80;;;22.80;72.40;;;;;;4997932;28;20022;-71
2023/08/15 02:52:32;;;;;;;8.45;7.38;;;22.80;72.50;;;;;;4998296;28;20042;-71
2023/08/15 02:55:00;;;;;;;11.27;8.68;;;22.70;72.50;;;;;;4997791;28;20033;-71
2023/08/15 02:57:28;;;;;;;8.65;6.80;;;22.70;72.50;;;;;;4998068;28;20029;-71
2023/08/15 02:59:54;;;;;;;11.85;8.40;;;22.70;72.40;;;;;;4997824;28;20026;-71
2023/08/15 03:02:20;;;;;;;9.75;7.80;;;22.70;72.40;;;;;;4997708;28;20034;-71
2023/08/15 03:04:46;;;;;;;9.90;8.15;;;22.60;72.50;;;;;;4997669;28;20030;-71
2023/08/15 03:07:13;;;;;;;9.70;7.50;;;22.60;72.50;;;;;;4997640;28;20034;-71
2023/08/15 03:09:40;;;;;;;9.07;7.15;;;22.60;72.50;;;;;;4997837;28;20034;-71
2023/08/15 03:12:10;;;;;;;8.75;7.20;;;22.60;72.50;;;;;;4997883;28;20030;-71
2023/08/15 03:14:36;;;;;;;9.05;7.35;;;22.50;72.60;;;;;;4997493;28;20023;-71
2023/08/15 03:17:07;;;;;;;10.40;8.05;;;22.50;72.60;;;;;;4997435;28;20337;-71
2023/08/15 03:19:37;;;;;;;8.65;7.32;;;22.50;72.60;;;;;;4997583;28;20057;-71
2023/08/15 03:22:09;;;;;;;10.07;7.57;;;22.50;72.70;;;;;;4997122;28;20074;-71
2023/08/15 03:24:36;;;;;;;10.50;7.05;;;22.40;72.70;;;;;;4997308;28;20027;-71
2023/08/15 03:27:05;;;;;;;10.15;7.90;;;22.40;72.80;;;;;;4997236;28;20060;-71
2023/08/15 03:29:31;;;;;;;11.38;9.10;;;22.40;72.80;;;;;;4997179;28;20109;-71
2023/08/15 03:31:58;;;;;;;9.45;8.32;;;22.40;72.90;;;;;;4997123;28;20352;-71
2023/08/15 03:34:24;;;;;;;11.18;8.43;;;22.40;72.90;;;;;;4997043;28;20034;-71
2023/08/15 03:36:50;;;;;;;11.15;9.13;;;22.40;72.90;;;;;;4997075;28;20062;-71
2023/08/15 03:39:16;;;;;;;12.85;8.60;;;22.40;73.20;;;;;;4997207;28;20101;-71
2023/08/15 03:41:42;;;;;;;10.63;8.43;;;22.40;72.80;;;;;;4996877;28;20050;-71
2023/08/15 03:44:10;;;;;;;10.95;8.02;;;22.40;72.70;;;;;;4995909;28;20026;-71
2023/08/15 03:46:44;;;;;;;9.77;8.77;;;22.40;72.50;;;;;;4995814;28;20356;-71
2023/08/15 03:49:28;;;;;;;8.73;7.72;;;22.40;72.60;;;;;;4996553;28;20353;-71
2023/08/15 03:51:55;;;;;;;8.35;7.15;;;22.40;72.50;;;;;;4997164;28;20041;-71
2023/08/15 03:54:20;;;;;;;9.77;7.50;;;22.40;72.50;;;;;;4996977;28;20050;-71
2023/08/15 03:56:53;;;;;;;10.40;7.30;;;22.40;72.60;;;;;;4996674;28;20104;-71
2023/08/15 03:59:22;;;;;;;9.60;6.80;;;22.30;72.60;;;;;;4996880;28;20437;-71
2023/08/15 04:01:49;;;;;;;8.32;7.15;;;22.30;72.60;;;;;;4996408;28;20567;-71
2023/08/15 04:04:15;;;;;;;10.25;7.65;;;22.40;72.70;;;;;;4997058;28;20033;-71
2023/08/15 04:06:43;;;;;;;9.27;7.40;;;22.30;72.80;;;;;;4996780;28;20459;-71
2023/08/15 04:09:08;;;;;;;9.77;7.63;;;22.30;72.70;;;;;;4996880;28;20077;-71
2023/08/15 04:11:40;;;;;;;8.55;7.13;;;22.20;72.80;;;;;;4995370;28;20022;-71
2023/08/15 04:14:08;;;;;;;9.50;7.90;;;22.30;72.80;;;;;;4996255;28;20121;-71
2023/08/15 04:16:35;;;;;;;9.45;7.40;;;22.30;72.80;;;;;;4996885;28;20202;-71
2023/08/15 04:19:01;;;;;;;8.98;7.53;;;22.30;72.80;;;;;;4996312;28;20022;-71
2023/08/15 04:21:27;;;;;;;8.00;7.10;;;22.20;72.90;;;;;;4995789;28;20045;-71
2023/08/15 04:23:53;;;;;;;8.60;7.70;;;22.20;72.90;;;;;;4996770;28;20058;-71
2023/08/15 04:26:19;;;;;;;8.90;7.30;;;22.20;73.00;;;;;;4996757;28;20348;-71
2023/08/15 04:28:46;;;;;;;9.32;7.68;;;22.20;72.90;;;;;;4996411;28;20061;-71
2023/08/15 04:31:12;;;;;;;9.02;7.63;;;22.20;73.00;;;;;;4996079;28;20019;-71
2023/08/15 04:33:38;;;;;;;9.55;7.35;;;22.30;73.00;;;;;;4996028;28;20030;-71
2023/08/15 04:36:04;;;;;;;9.10;7.40;;;22.30;73.10;;;;;;4996368;28;20343;-71
2023/08/15 04:38:30;;;;;;;8.38;7.22;;;22.40;73.00;;;;;;4996016;28;20023;-71
2023/08/15 04:40:58;;;;;;;7.50;6.70;;;22.40;72.90;;;;;;4995996;28;20018;-71
2023/08/15 04:43:25;;;;;;;9.30;7.32;;;22.40;72.80;;;;;;4996513;28;20432;-71
2023/08/15 04:50:47;;;;;;;9.15;7.38;;;22.60;72.60;;;;;;4996502;28;20030;-71
2023/08/15 04:53:13;;;;;;;11.45;8.27;;;22.70;72.40;;;;;;4996317;28;20109;-71
2023/08/15 04:55:39;;;;;;;11.23;8.35;;;22.70;72.40;;;;;;4995912;28;20516;-71
2023/08/15 04:58:09;;;;;;;11.60;7.35;;;22.80;72.20;;;;;;4994831;28;20085;-71
2023/08/15 05:00:36;;;;;;;7.82;7.00;;;22.90;71.90;;;;;;4996233;28;20348;-71
2023/08/15 05:03:02;;;;;;;11.70;6.93;;;23.00;71.80;;;;;;4996075;28;20060;-71
2023/08/15 05:05:30;;;;;;;9.15;6.72;;;23.40;71.50;;;;;;4996041;28;20058;-71
2023/08/15 05:07:56;;;;;;;8.95;7.10;;;24.00;69.90;;;;;;4995735;28;20026;-71
2023/08/15 05:10:22;;;;;;;9.05;7.00;;;24.40;69.10;;;;;;4996204;28;20086;-71
2023/08/15 05:12:48;;;;;;;9.48;7.30;;;25.00;68.40;;;;;;4995661;28;20106;-70
2023/08/15 05:15:15;;;;;;;8.75;6.47;;;26.00;66.50;;;;;;4996254;28;20034;-71
2023/08/15 05:17:52;;;;;;;7.10;6.40;;;27.20;63.60;;;;;;4995650;28;20105;-71
2023/08/15 05:20:18;;;;;;;8.82;6.28;;;28.40;59.40;;;;;;4996997;28;20356;-71
2023/08/15 05:22:45;;;;;;;7.18;6.13;;;29.50;58.40;;;;;;4998972;28;20521;-71
2023/08/15 05:25:12;;;;;;;7.60;6.05;;;30.50;56.50;;;;;;4999760;28;20049;-71
2023/08/15 05:27:38;;;;;;;8.07;6.82;;;31.40;54.10;;;;;;4999476;28;20022;-71
2023/08/15 05:30:04;;;;;;;7.00;5.82;;;32.30;52.30;;;;;;4999428;28;20029;-71
2023/08/15 05:32:30;;;;;;;7.72;6.68;;;33.20;50.70;;;;;;4999229;28;20499;-71
2023/08/15 05:34:59;;;;;;;8.57;6.20;;;33.90;49.00;;;;;;4999297;28;20053;-71
2023/08/15 05:37:25;;;;;;;8.80;5.85;;;34.50;48.00;;;;;;4999219;28;20018;-71
2023/08/15 05:39:52;;;;;;;7.63;5.70;;;35.40;46.60;;;;;;4999163;28;20113;-71
2023/08/15 05:42:18;;;;;;;6.30;5.38;;;36.00;45.50;;;;;;4999167;28;20026;-71
2023/08/15 05:44:46;;;;;;;8.63;5.78;;;36.80;44.10;;;;;;4999169;28;20026;-71
2023/08/15 05:47:12;;;;;;;6.07;5.47;;;37.40;43.20;;;;;;4999356;28;20034;-71
2023/08/15 05:49:39;;;;;;;6.93;5.55;;;38.10;42.10;;;;;;4999084;28;20109;-71
2023/08/15 05:52:05;;;;;;;7.05;5.57;;;38.70;41.20;;;;;;4998859;28;20026;-71
2023/08/15 05:54:32;;;;;;;6.20;5.30;;;39.30;40.10;;;;;;4998913;28;20037;-71
2023/08/15 05:57:01;;;;;;;7.57;5.28;;;39.90;39.40;;;;;;4999442;28;20069;-71
2023/08/15 05:59:28;;;;;;;7.97;5.30;;;40.50;38.50;;;;;;4998904;28;20068;-71
2023/08/15 06:01:54;;;;;;;5.95;4.90;;;41.10;37.60;;;;;;4997784;28;20014;-71
2023/08/15 06:04:20;;;;;;;8.60;5.30;;;41.70;36.90;;;;;;4998771;28;20026;-71
2023/08/15 06:06:46;;;;;;;7.80;5.18;;;42.10;35.80;;;;;;4998741;28;20056;-72
2023/08/15 06:09:12;;;;;;;6.28;4.70;;;42.50;35.20;;;;;;4998965;28;20186;-71
2023/08/15 06:11:39;;;;;;;6.15;4.97;;;42.90;34.90;;;;;;4998579;28;20030;-71
2023/08/15 06:14:05;;;;;;;5.20;4.32;;;43.40;34.00;;;;;;4998768;28;20026;-71
2023/08/15 06:16:31;;;;;;;5.78;4.68;;;43.90;33.90;;;;;;4998570;28;20026;-71
2023/08/15 06:18:57;;;;;;;6.82;4.72;;;44.40;33.40;;;;;;4999033;28;20085;-71
2023/08/15 06:21:23;;;;;;;6.88;4.95;;;45.00;32.70;;;;;;4998234;28;20038;-71
2023/08/15 06:23:49;;;;;;;5.43;4.57;;;45.40;31.70;;;;;;4998969;28;20026;-71
2023/08/15 06:26:15;;;;;;;5.10;4.60;;;45.80;31.60;;;;;;4998671;28;20087;-71
2023/08/15 06:28:43;;;;;;;5.00;4.43;;;46.40;31.20;;;;;;4998877;28;20062;-72
2023/08/15 06:31:09;;;;;;;5.22;4.32;;;46.80;30.60;;;;;;4997734;28;20081;-72
2023/08/15 06:33:35;;;;;;;7.50;4.47;;;47.30;30.30;;;;;;4998219;28;20388;-72
2023/08/15 06:36:01;;;;;;;6.15;4.68;;;47.70;29.50;;;;;;4998475;28;20022;-72
2023/08/15 06:38:27;;;;;;;8.90;5.25;;;47.90;28.90;;;;;;4998211;28;20018;-72
2023/08/15 06:40:53;;;;;;;6.10;4.95;;;48.00;28.30;;;;;;4998322;28;20081;-72
2023/08/15 06:43:19;;;;;;;6.72;4.60;;;48.30;28.30;;;;;;4998377;28;20452;-72
2023/08/15 06:45:45;;;;;;;6.43;4.82;;;48.50;28.20;;;;;;4998296;28;20029;-72
2023/08/15 06:48:11;;;;;;;4.93;4.43;;;48.80;28.00;;;;;;4997030;28;20049;-72
2023/08/15 06:50:38;;;;;;;6.85;4.95;;;49.00;27.80;;;;;;4998405;28;20468;-72
2023/08/15 06:53:04;;;;;;;4.70;4.10;;;49.20;27.30;;;;;;4998069;28;20067;-72
2023/08/15 06:55:30;;;;;;;5.65;4.40;;;49.10;27.30;;;;;;4997851;28;20437;-72
2023/08/15 06:57:56;;;;;;;6.95;4.45;;;49.20;27.40;;;;;;4998335;28;20025;-73
2023/08/15 07:02:47;;;;;;;4.75;4.30;;;49.50;27.30;;;;;;4998183;28;20341;-72
2023/08/15 07:05:13;;;;;;;4.90;4.50;;;49.50;27.30;;;;;;4997670;28;20130;-72
2023/08/15 07:07:39;;;;;;;6.15;4.68;;;49.50;27.10;;;;;;4997670;28;20105;-72
2023/08/15 07:10:06;;;;;;;6.05;4.57;;;49.50;27.00;;;;;;4997621;28;20038;-72
2023/08/15 07:12:33;;;;;;;6.13;4.55;;;49.50;26.80;;;;;;4996798;28;20037;-72
2023/08/15 07:15:00;;;;;;;6.97;5.10;;;49.40;26.80;;;;;;4997938;28;20033;-72
2023/08/15 07:17:26;;;;;;;7.47;5.00;;;48.80;26.80;;;;;;4997500;28;20026;-72
2023/08/15 07:19:55;;;;;;;5.57;4.85;;;47.70;27.60;;;;;;4997893;28;20022;-72
2023/08/15 07:22:23;;;;;;;6.70;4.70;;;46.10;28.70;;;;;;4996998;28;20058;-72
2023/08/15 07:24:49;;;;;;;7.13;5.00;;;44.50;30.10;;;;;;4997217;28;20042;-72
2023/08/15 07:27:15;;;;;;;6.88;5.50;;;43.10;31.40;;;;;;4997560;28;20018;-72
2023/08/15 07:29:41;;;;;;;5.82;5.20;;;41.90;32.50;;;;;;4997486;28;20036;-72
2023/08/15 07:32:08;;;;;;;5.88;5.28;;;41.00;33.60;;;;;;4997168;28;20441;-72
2023/08/15 07:34:34;;;;;;;7.97;5.00;;;40.30;34.50;;;;;;4997397;28;20023;-72
2023/08/15 07:37:00;;;;;;;5.80;5.20;;;39.60;35.10;;;;;;4997100;28;20077;-72
2023/08/15 07:39:26;;;;;;;6.97;5.00;;;39.10;35.60;;;;;;4997575;28;20023;-71
2023/08/15 07:41:58;;;;;;;7.63;5.47;;;38.70;36.20;;;;;;4995223;28;20121;-71
2023/08/15 07:44:25;;;;;;;6.65;5.28;;;38.40;36.10;;;;;;4996877;28;20022;-72
2023/08/15 07:46:52;;;;;;;6.30;5.28;;;38.00;37.10;;;;;;4997376;28;20022;-72
2023/08/15 07:49:18;;;;;;;6.13;5.22;;;37.90;37.50;;;;;;4996789;28;20445;-72
2023/08/15 07:51:44;;;;;;;6.50;5.22;;;37.70;37.60;;;;;;4996762;28;20037;-72
2023/08/15 07:54:10;;;;;;;7.68;5.50;;;37.60;37.90;;;;;;4996701;28;20022;-72
2023/08/15 07:56:38;;;;;;;6.13;5.45;;;37.40;38.10;;;;;;4996998;28;20364;-72
2023/08/15 07:59:06;;;;;;;7.15;5.28;;;37.30;38.10;;;;;;4997179;28;20421;-72
2023/08/15 08:01:34;;;;;;;7.50;5.47;;;37.20;38.00;;;;;;4997020;28;20386;-71
2023/08/15 08:06:27;;;;;;;9.30;6.10;;;37.00;37.40;;;;;;4997092;28;20053;-71
2023/08/15 08:08:53;;;;;;;7.43;6.32;;;36.90;37.30;;;;;;4996743;28;20031;-71
2023/08/15 08:11:19;;;;;;;9.90;6.10;;;36.90;37.00;;;;;;4996277;28;20041;-71
2023/08/15 08:13:45;;;;;;;6.25;5.55;;;36.70;37.00;;;;;;4996355;28;20070;-71
2023/08/15 08:16:11;;;;;;;6.05;5.45;;;36.60;37.50;;;;;;4996350;28;20026;-71
2023/08/15 08:18:37;;;;;;;5.93;5.22;;;36.50;37.40;;;;;;4996355;28;20114;-71
2023/08/15 08:21:05;;;;;;;7.20;5.63;;;36.50;37.50;;;;;;4995124;28;20423;-71
2023/08/15 08:23:32;;;;;;;7.18;5.97;;;36.40;37.30;;;;;;4996092;28;20058;-71
2023/08/15 08:26:01;;;;;;;6.63;5.85;;;36.40;37.30;;;;;;4996568;28;20483;-71
2023/08/15 08:28:27;;;;;;;7.30;5.80;;;36.40;37.40;;;;;;4996716;28;20321;-71
2023/08/15 08:30:55;;;;;;;9.93;5.57;;;36.30;37.70;;;;;;4996360;28;20106;-71
2023/08/15 08:33:24;;;;;;;6.75;6.00;;;36.20;37.70;;;;;;4996020;28;20523;-71
2023/08/15 08:35:50;;;;;;;6.97;6.00;;;36.20;37.20;;;;;;4996628;28;20049;-72
2023/08/15 08:38:35;;;;;;;7.07;6.18;;;36.10;37.20;;;;;;4996127;28;20436;-72
2023/08/15 08:41:04;;;;;;;7.10;6.35;;;35.90;37.20;;;;;;4995870;28;20034;-72
2023/08/15 08:43:33;;;;;;;7.68;6.22;;;35.90;37.20;;;;;;4996172;28;20464;-72
2023/08/15 08:46:04;;;;;;;6.93;6.22;;;35.80;37.30;;;;;;4995915;28;20345;-72
2023/08/15 08:48:32;;;;;;;7.47;6.68;;;35.70;37.20;;;;;;4995546;28;20026;-72
2023/08/15 08:50:58;;;;;;;7.15;6.45;;;35.50;37.40;;;;;;4994687;28;20042;-72
2023/08/15 08:53:28;;;;;;;7.43;6.35;;;35.40;37.50;;;;;;4995662;28;20092;-72
2023/08/15 08:55:55;;;;;;;7.38;6.20;;;35.30;37.70;;;;;;4995825;28;20034;-72
2023/08/15 08:58:23;;;;;;;8.10;6.40;;;35.30;37.70;;;;;;4996371;28;20030;-72
2023/08/15 09:00:51;;;;;;;8.40;6.72;;;35.30;37.70;;;;;;4995768;28;20105;-72
2023/08/15 09:03:18;;;;;;;8.13;6.20;;;35.20;37.80;;;;;;4996325;28;20037;-72
2023/08/15 09:05:48;;;;;;;8.18;6.25;;;35.20;38.10;;;;;;4995794;28;20037;-72
2023/08/15 09:08:16;;;;;;;7.03;6.32;;;35.20;37.90;;;;;;4996327;28;20026;-72
2023/08/15 09:10:42;;;;;;;7.47;6.10;;;35.00;38.00;;;;;;4995943;28;20113;-72
2023/08/15 09:13:09;;;;;;;7.40;6.68;;;34.90;38.30;;;;;;4994664;28;20453;-72
2023/08/15 09:15:40;;;;;;;7.00;6.00;;;34.70;38.50;;;;;;4995757;28;20027;-72
2023/08/15 09:18:07;;;;;;;6.47;5.88;;;34.70;38.90;;;;;;4995622;28;20050;-72
2023/08/15 09:20:44;;;;;;;6.93;6.15;;;34.80;39.10;;;;;;4995552;28;20121;-72
2023/08/15 09:23:12;;;;;;;7.15;6.00;;;34.90;39.30;;;;;;4995415;28;20046;-72
2023/08/15 09:25:41;;;;;;;7.88;7.07;;;35.00;39.20;;;;;;4995622;28;20030;-71
2023/08/15 09:28:14;;;;;;;9.10;7.30;;;35.10;39.20;;;;;;4995622;28;20436;-72
2023/08/15 09:30:53;;;;;;;7.60;6.07;;;35.10;38.50;;;;;;4995410;28;20054;-72
2023/08/15 09:33:20;;;;;;;6.82;6.13;;;34.90;38.80;;;;;;4996013;28;20339;-72
2023/08/15 09:35:46;;;;;;;7.78;6.85;;;34.90;39.00;;;;;;4995821;28;20110;-72
2023/08/15 09:38:14;;;;;;;6.75;5.97;;;34.90;39.10;;;;;;4996058;28;20468;-72
2023/08/15 09:40:44;;;;;;;7.68;6.38;;;34.90;39.10;;;;;;4995682;28;20054;-72
2023/08/15 09:43:19;;;;;;;6.93;6.20;;;34.90;39.30;;;;;;4995394;28;20041;-72
2023/08/15 09:45:49;;;;;;;7.38;6.32;;;35.00;39.30;;;;;;4996010;28;20030;-72
2023/08/15 09:48:18;;;;;;;9.80;7.07;;;35.00;38.90;;;;;;4995430;28;20030;-72
2023/08/15 09:50:49;;;;;;;8.68;6.65;;;35.00;38.80;;;;;;4995795;28;20026;-72
2023/08/15 09:53:20;;;;;;;7.35;6.55;;;34.90;39.00;;;;;;4995829;28;20023;-72
2023/08/15 09:56:12;;;;;;;7.82;6.93;;;34.90;39.40;;;;;;4995617;28;20034;-72
2023/08/15 09:58:33;;;;;;;8.05;6.18;;;34.90;39.50;;;;;;4994460;28;20035;-72
2023/08/15 10:01:04;;;;;;;8.98;6.80;;;34.90;39.70;;;;;;4995502;28;20450;-72
2023/08/15 10:03:39;;;;;;;8.13;6.50;;;35.00;39.40;;;;;;4995286;28;20348;-72
2023/08/15 10:06:07;;;;;;;7.43;6.60;;;35.00;39.60;;;;;;4997533;28;20050;-72
2023/08/15 10:08:38;;;;;;;8.35;6.03;;;35.00;39.90;;;;;;4998698;28;20058;-72
2023/08/15 10:11:10;;;;;;;10.20;7.57;;;35.10;39.90;;;;;;4998867;28;20030;-72
2023/08/15 10:16:05;;;;;;;7.78;6.55;;;35.00;39.30;;;;;;4998597;28;20121;-72
2023/08/15 10:18:31;;;;;;;7.10;6.38;;;34.90;39.60;;;;;;4997595;28;20027;-72
2023/08/15 10:23:31;;;;;;;7.70;6.43;;;34.90;39.80;;;;;;4998195;28;20138;-72
2023/08/15 10:25:59;;;;;;;7.13;6.32;;;34.90;39.50;;;;;;4997583;28;20092;-72
2023/08/15 10:28:29;;;;;;;8.80;6.25;;;34.90;39.60;;;;;;4998924;28;20041;-71
2023/08/15 10:30:56;;;;;;;7.30;6.55;;;34.90;39.80;;;;;;4998259;28;20080;-71
2023/08/15 10:33:31;;;;;;;8.85;7.22;;;34.90;39.70;;;;;;4998759;28;20034;-71
2023/08/15 10:35:59;;;;;;;7.18;6.15;;;34.90;39.80;;;;;;4998538;28;20149;-71
2023/08/15 10:38:41;;;;;;;7.63;6.35;;;34.90;39.50;;;;;;4998141;28;20023;-71
2023/08/15 10:41:17;;;;;;;7.07;6.38;;;34.90;39.60;;;;;;4998318;28;20448;-71
2023/08/15 10:43:52;;;;;;;8.30;6.47;;;34.80;39.60;;;;;;4998374;28;20022;-71
2023/08/15 10:46:25;;;;;;;7.10;6.32;;;34.90;39.80;;;;;;4998124;28;20109;-71
2023/08/15 10:48:54;;;;;;;7.40;6.50;;;34.90;39.70;;;;;;4998629;28;20085;-71
2023/08/15 10:51:29;;;;;;;6.90;6.20;;;34.80;39.10;;;;;;4996980;28;20077;-71
2023/08/15 10:53:58;;;;;;;6.80;5.75;;;34.70;39.40;;;;;;4998384;28;20033;-71
2023/08/15 10:56:30;;;;;;;6.70;6.00;;;34.60;39.60;;;;;;4998421;28;20019;-71
2023/08/15 10:59:05;;;;;;;6.90;6.20;;;34.70;39.80;;;;;;4997294;28;20030;-71
2023/08/15 11:01:33;;;;;;;6.38;5.75;;;34.70;39.50;;;;;;4998315;28;20026;-71
2023/08/15 11:04:01;;;;;;;7.30;6.13;;;34.70;39.40;;;;;;4998259;28;20027;-71
2023/08/15 11:06:42;;;;;;;6.90;6.20;;;34.70;39.50;;;;;;4997363;28;20042;-71
2023/08/15 11:09:12;;;;;;;6.95;5.53;;;34.70;39.40;;;;;;4997981;28;20096;-71
2023/08/15 11:11:40;;;;;;;6.55;5.82;;;34.70;39.80;;;;;;4997778;28;20031;-71
2023/08/15 11:14:19;;;;;;;6.53;5.93;;;34.80;39.70;;;;;;4997989;28;20030;-71
2023/08/15 11:24:07;;;;;;;6.32;5.50;;;34.80;39.30;;;;;;4998132;28;20448;-71
2023/08/15 11:26:34;;;;;;;6.68;5.95;;;34.80;39.30;;;;;;4997279;28;20048;-71
2023/08/15 11:29:00;;;;;;;7.72;5.97;;;34.80;39.20;;;;;;4997323;28;20057;-71
2023/08/15 11:36:22;;;;;;;7.35;5.95;;;34.50;38.80;;;;;;4997897;28;20037;-71
2023/08/15 11:38:49;;;;;;;7.07;5.63;;;34.50;39.00;;;;;;4997596;28;20022;-70
2023/08/15 11:41:16;;;;;;;6.18;5.57;;;34.50;39.10;;;;;;4996981;28;20034;-70
2023/08/15 11:43:42;;;;;;;5.95;5.22;;;34.50;39.00;;;;;;4996963;28;20023;-72
2023/08/15 11:46:12;;;;;;;5.55;5.03;;;34.50;39.00;;;;;;4997440;28;20089;-70
2023/08/15 11:48:42;;;;;;;6.43;5.78;;;34.60;39.10;;;;;;4996822;28;20026;-71
2023/08/15 11:51:20;;;;;;;6.40;5.43;;;34.60;39.30;;;;;;4997111;28;20029;-70
2023/08/15 11:53:56;;;;;;;7.72;6.10;;;34.70;39.20;;;;;;4996694;28;20030;-70
2023/08/15 11:58:56;;;;;;;7.10;6.05;;;34.40;38.40;;;;;;4997263;28;20038;-70
2023/08/15 12:01:27;;;;;;;7.30;5.63;;;34.30;38.40;;;;;;4996595;28;20033;-70
2023/08/15 12:03:55;;;;;;;6.00;5.40;;;34.20;38.70;;;;;;4996572;28;20046;-70
2023/08/15 12:06:21;;;;;;;5.95;5.35;;;34.20;38.90;;;;;;4996533;28;20053;-71
2023/08/15 12:08:49;;;;;;;7.15;5.93;;;34.20;39.10;;;;;;4996822;28;20352;-71
2023/08/15 12:11:20;;;;;;;8.30;6.10;;;34.30;39.10;;;;;;4996794;28;20018;-70
2023/08/15 12:13:48;;;;;;;7.93;6.38;;;34.30;39.20;;;;;;4995814;28;20436;-70
2023/08/15 12:16:15;;;;;;;6.60;5.53;;;34.30;39.30;;;;;;4996953;28;20018;-70
2023/08/15 12:18:43;;;;;;;6.20;5.60;;;34.40;39.30;;;;;;4996345;28;20054;-71
2023/08/15 12:21:11;;;;;;;6.93;5.70;;;34.40;39.60;;;;;;4996512;28;20026;-71
2023/08/15 12:23:39;;;;;;;6.85;6.15;;;34.50;39.50;;;;;;4996059;28;20113;-71
2023/08/15 12:26:05;;;;;;;6.72;6.03;;;34.50;39.50;;;;;;4996778;28;20436;-71
2023/08/15 12:28:33;;;;;;;7.38;5.65;;;34.50;39.60;;;;;;4995883;28;20029;-71
2023/08/15 12:30:59;;;;;;;8.20;5.93;;;34.50;39.60;;;;;;4996094;28;20127;-71
2023/08/15 12:33:26;;;;;;;7.75;5.95;;;34.50;39.60;;;;;;4996046;28;20058;-71
2023/08/15 12:35:57;;;;;;;6.13;5.53;;;34.60;39.60;;;;;;4996379;28;20022;-71
2023/08/15 12:38:23;;;;;;;7.25;6.20;;;34.60;39.60;;;;;;4996062;28;20403;-70
2023/08/15 12:40:53;;;;;;;6.65;5.88;;;34.60;39.50;;;;;;4996473;28;20019;-71
2023/08/15 12:43:23;;;;;;;6.20;5.60;;;34.50;39.50;;;;;;4996328;28;20022;-70
2023/08/15 12:45:51;;;;;;;7.05;6.35;;;34.50;39.40;;;;;;4995960;28;20037;-71
2023/08/15 12:48:20;;;;;;;7.60;6.47;;;34.50;39.30;;;;;;4995890;28;20047;-70
2023/08/15 12:50:51;;;;;;;8.20;6.70;;;34.40;39.40;;;;;;4995904;28;20105;-70
2023/08/15 12:53:20;;;;;;;9.20;6.32;;;34.40;39.50;;;;;;4995810;28;20054;-70
2023/08/15 12:55:52;;;;;;;6.25;5.65;;;34.40;39.60;;;;;;4996457;28;20113;-70
2023/08/15 12:58:22;;;;;;;7.47;5.77;;;34.50;39.60;;;;;;4995826;28;20109;-70
2023/08/15 13:00:48;;;;;;;8.88;6.65;;;34.40;39.70;;;;;;4996245;28;20025;-70
2023/08/15 13:03:18;;;;;;;8.20;5.95;;;34.40;39.60;;;;;;4995637;28;20085;-70
2023/08/15 13:05:47;;;;;;;6.82;6.13;;;34.50;39.70;;;;;;4995827;28;20037;-69
2023/08/15 13:08:24;;;;;;;6.95;6.07;;;34.50;39.80;;;;;;4996300;28;20030;-71
2023/08/15 13:10:53;;;;;;;6.38;5.63;;;34.60;39.80;;;;;;4995646;28;20049;-70
2023/08/15 13:13:18;;;;;;;7.00;5.55;;;34.60;39.80;;;;;;4995662;28;20030;-72
2023/08/15 13:18:10;;;;;;;6.68;6.00;;;34.60;40.00;;;;;;4996230;28;20038;-70